Terminal Aerodrome Forecast
Issued by NWS

Home | Current Version | Previous Version | Text Only | Print | Product List | Glossary On
Versions: 1 2 3 4 5 6 7 8 9 10 11 12 13 14 15 16 17 18 19 20 21 22 23 24 25 26 27 28 29 30 31 32 33 34 35 36 37 38 39
000
FTUS45 KBOU 022025 AAB
TAFBJC
TAF AMD
KBJC 022025Z 0220/0318 10005KT 3SM -SN BR SCT006 BKN015 OVC035
      TEMPO 0220/0221 1SM -SN BKN006
     FM022100 12008KT P6SM VCSH BKN030 OVC090
      TEMPO 0221/0301 -SN BKN020
     FM030200 34008KT P6SM SCT030 BKN090
     FM030600 29005KT P6SM FEW050 SCT120
     FM030900 VRB04KT P6SM SCT120
     FM031500 18005KT P6SM SCT200=

USA.gov is the U.S. government's official web portal to all federal, state and local government web resources and services.